Time;durP1;ratioP1;P1;durP2;ratioP2;P2;SDS_P1;SDS_P2;PMS_P1;PMS_P2;Temp;Humidity;BMP_temperature;BMP_pressure;BME280_temperature;BME280_humidity;BME280_pressure;Samples;Min_cycle;Max_cycle;Signal;HPM_P1;HPM_P2
2022/06/16 00:04:57;;;;;;;9.40;4.80;;;;;;;12.73;100.00;96611.16;10336034;28;20669;-56
2022/06/16 00:09:58;;;;;;;7.35;4.38;;;;;;;12.76;100.00;96616.06;10335319;28;20308;-56
2022/06/16 00:14:58;;;;;;;5.30;4.25;;;;;;;12.67;100.00;96616.09;10335609;28;20194;-56
2022/06/16 00:20:00;;;;;;;9.13;4.20;;;;;;;12.47;100.00;96612.25;10334647;28;20639;-51
2022/06/16 00:25:01;;;;;;;6.80;4.28;;;;;;;12.30;100.00;96614.94;10335057;28;20213;-56
2022/06/16 00:30:03;;;;;;;6.72;4.05;;;;;;;12.32;100.00;96609.50;10335169;28;20585;-50
2022/06/16 00:35:03;;;;;;;6.33;4.80;;;;;;;12.18;100.00;96607.59;10334756;28;20190;-55
2022/06/16 00:40:04;;;;;;;9.40;4.87;;;;;;;11.95;100.00;96603.06;10334479;28;20244;-56
2022/06/16 00:45:42;;;;;;;7.10;4.65;;;;;;;11.92;100.00;96608.63;10334169;28;20311;-55
2022/06/16 00:50:44;;;;;;;6.03;5.03;;;;;;;11.76;100.00;96610.28;10333699;28;20220;-51
2022/06/16 00:55:44;;;;;;;7.17;5.17;;;;;;;11.65;100.00;96607.97;10333156;28;20727;-54
2022/06/16 01:00:45;;;;;;;7.40;4.80;;;;;;;11.70;100.00;96621.44;10333109;28;20202;-50
2022/06/16 01:05:46;;;;;;;5.80;5.27;;;;;;;11.53;100.00;96609.31;10315755;28;20228;-54
2022/06/16 01:10:47;;;;;;;5.80;5.10;;;;;;;11.25;100.00;96614.88;10333096;28;20313;-49
2022/06/16 01:16:27;;;;;;;11.03;5.40;;;;;;;11.17;100.00;96613.06;10299203;28;20190;-51
2022/06/16 01:21:37;;;;;;;10.30;5.87;;;;;;;11.14;100.00;96609.97;10322542;28;20234;-53
2022/06/16 01:27:03;;;;;;;8.53;5.17;;;;;;;11.42;100.00;96607.84;10314613;28;20262;-48
2022/06/16 01:32:19;;;;;;;5.87;4.57;;;;;;;11.44;100.00;96608.50;10315170;28;20218;-54
2022/06/16 01:37:39;;;;;;;9.20;5.60;;;;;;;11.37;100.00;96605.72;10331128;28;20193;-54
2022/06/16 01:42:53;;;;;;;8.33;5.13;;;;;;;11.22;100.00;96604.72;10298182;28;20281;-50
2022/06/16 01:47:54;;;;;;;7.57;4.83;;;;;;;11.27;100.00;96606.84;10331378;28;20217;-49
2022/06/16 01:53:08;;;;;;;5.53;4.33;;;;;;;11.52;100.00;96605.06;10314426;28;20194;-50
2022/06/16 01:58:23;;;;;;;10.80;4.73;;;;;;;11.62;100.00;96605.69;10313578;28;20257;-49
2022/06/16 02:03:28;;;;;;;7.27;4.60;;;;;;;11.65;100.00;96602.75;10312412;28;20272;-49
2022/06/16 02:08:31;;;;;;;4.73;4.20;;;;;;;11.58;100.00;96597.34;10328983;28;20285;-49
2022/06/16 02:13:39;;;;;;;8.50;4.30;;;;;;;11.32;100.00;96607.19;10313362;28;20193;-50
2022/06/16 02:18:41;;;;;;;5.63;4.20;;;;;;;11.06;100.00;96602.91;10312885;28;20579;-50
2022/06/16 02:23:42;;;;;;;5.10;3.90;;;;;;;10.96;100.00;96595.19;10296435;28;20277;-50
2022/06/16 02:28:51;;;;;;;4.93;3.60;;;;;;;11.36;100.00;96593.59;10313046;28;20226;-50
2022/06/16 02:34:07;;;;;;;7.70;4.60;;;;;;;11.34;100.00;96597.34;10313073;28;20216;-53
2022/06/16 02:39:22;;;;;;;6.07;4.83;;;;;;;11.16;100.00;96598.31;10296436;28;20641;-55
2022/06/16 02:44:33;;;;;;;7.23;4.27;;;;;;;11.40;100.00;96607.19;10312432;28;20771;-48
2022/06/16 02:49:58;;;;;;;5.17;4.53;;;;;;;11.50;100.00;96604.38;10312791;28;20220;-49
2022/06/16 02:55:10;;;;;;;5.00;4.57;;;;;;;11.59;100.00;96595.53;10312361;28;20293;-53
2022/06/16 03:00:15;;;;;;;5.63;4.23;;;;;;;11.69;100.00;96588.31;10312307;28;20300;-50
2022/06/16 03:05:16;;;;;;;3.83;3.40;;;;;;;11.72;100.00;96577.47;10338488;28;20755;-53
2022/06/16 03:10:50;;;;;;;4.18;3.55;;;;;;;11.71;100.00;96564.53;10353207;28;20219;-55
2022/06/16 03:15:39;;;;;;;8.47;3.60;;;;;;;11.81;100.00;96556.44;10353779;28;20181;-54
2022/06/16 03:20:40;;;;;;;5.87;3.80;;;;;;;11.91;100.00;96557.09;10359948;28;20713;-53
2022/06/16 03:25:41;;;;;;;5.60;3.77;;;;;;;12.10;100.00;96562.00;10377704;28;20220;-56
2022/06/16 03:30:42;;;;;;;5.33;3.47;;;;;;;12.41;100.00;96555.13;10359657;28;20209;-52
2022/06/16 03:35:45;;;;;;;4.28;2.90;;;;;;;12.76;100.00;96559.03;10359864;28;20196;-54
2022/06/16 03:40:46;;;;;;;2.58;2.38;;;;;;;12.90;100.00;96546.16;10377321;28;20221;-53
2022/06/16 03:45:47;;;;;;;4.60;3.10;;;;;;;13.14;100.00;96545.97;10359810;28;20221;-55
2022/06/16 03:50:49;;;;;;;3.90;3.10;;;;;;;13.09;100.00;96553.53;10359160;28;20284;-55
2022/06/16 03:55:52;;;;;;;5.00;2.63;;;;;;;13.22;100.00;96546.91;10359256;28;20279;-53
2022/06/16 04:00:56;;;;;;;4.07;3.03;;;;;;;13.47;100.00;96542.25;10358023;28;20559;-53
2022/06/16 04:05:57;;;;;;;3.53;2.60;;;;;;;13.69;100.00;96545.81;10376213;28;20217;-53
2022/06/16 04:10:58;;;;;;;4.70;2.83;;;;;;;13.99;100.00;96548.47;10358976;28;20217;-49
2022/06/16 04:15:59;;;;;;;4.00;2.78;;;;;;;14.09;99.33;96544.56;10358218;28;20200;-54
2022/06/16 04:20:59;;;;;;;3.85;2.65;;;;;;;14.40;97.43;96537.44;10359278;28;20240;-51
2022/06/16 04:26:21;;;;;;;5.50;2.88;;;;;;;14.71;94.81;96534.56;10356461;28;20287;-54
2022/06/16 04:31:23;;;;;;;5.20;2.38;;;;;;;14.74;95.07;96528.09;10357963;28;20209;-50
2022/06/16 04:36:24;;;;;;;5.40;2.90;;;;;;;14.96;93.59;96518.38;10357126;28;20655;-51
2022/06/16 04:41:35;;;;;;;4.30;2.83;;;;;;;15.29;93.46;96538.97;10358310;28;20240;-54
2022/06/16 04:46:39;;;;;;;4.93;2.80;;;;;;;15.70;91.25;96525.84;10357389;28;20221;-55
2022/06/16 04:51:39;;;;;;;3.53;2.28;;;;;;;15.99;88.86;96513.47;10374108;28;20209;-56
2022/06/16 04:56:43;;;;;;;4.05;2.35;;;;;;;16.18;86.74;96505.81;10357040;28;20656;-55
2022/06/16 05:02:04;;;;;;;3.72;2.25;;;;;;;16.19;87.55;96515.38;10373474;28;20665;-52
2022/06/16 05:07:25;;;;;;;4.65;2.70;;;;;;;16.35;87.01;96498.34;10356641;28;20252;-53
2022/06/16 05:12:49;;;;;;;3.70;2.65;;;;;;;16.88;85.15;96501.16;10345893;28;20197;-55
2022/06/16 05:18:09;;;;;;;3.42;2.22;;;;;;;17.27;83.55;96509.31;10373722;28;20213;-54
2022/06/16 05:23:28;;;;;;;3.33;2.50;;;;;;;17.41;83.10;96504.84;10373788;28;20229;-55
2022/06/16 05:29:07;;;;;;;4.15;2.75;;;;;;;17.35;84.35;96506.50;10361300;28;20217;-52
2022/06/16 05:34:30;;;;;;;6.03;2.72;;;;;;;17.33;84.16;96516.44;10364985;28;20193;-50
2022/06/16 05:39:42;;;;;;;6.28;3.22;;;;;;;17.49;83.23;96517.88;10354248;28;20241;-50
2022/06/16 05:44:48;;;;;;;5.65;3.25;;;;;;;17.60;84.94;96542.94;10372473;28;20217;-53
2022/06/16 05:50:16;;;;;;;3.53;3.17;;;;;;;17.92;82.71;96540.47;10370302;28;20703;-52
2022/06/16 05:55:17;;;;;;;4.32;2.90;;;;;;;18.41;83.93;96557.66;10371401;28;20185;-54
2022/06/16 06:00:18;;;;;;;4.20;3.05;;;;;;;18.75;81.46;96539.75;10354074;28;20209;-58
2022/06/16 06:05:30;;;;;;;5.45;2.65;;;;;;;19.43;80.33;96543.59;10371713;28;20248;-51
2022/06/16 06:21:16;;;;;;;6.13;2.92;;;;;;;20.48;75.68;96564.06;10355476;28;20284;-55
2022/06/16 06:26:17;;;;;;;9.00;3.65;;;;;;;20.90;75.51;96573.22;10371137;28;20224;-52
2022/06/16 06:31:17;;;;;;;3.95;2.85;;;;;;;21.27;75.51;96578.41;10353622;28;20311;-53
2022/06/16 06:36:18;;;;;;;3.45;2.42;;;;;;;21.76;72.93;96563.13;10369320;28;20181;-52
2022/06/16 06:41:18;;;;;;;6.90;2.33;;;;;;;21.48;73.99;96585.06;10370830;28;20312;-56
2022/06/16 06:46:19;;;;;;;5.07;2.35;;;;;;;21.42;71.76;96538.03;10370463;28;20236;-54
2022/06/16 06:51:19;;;;;;;4.97;2.83;;;;;;;20.61;77.91;96628.81;10369296;28;20209;-56
2022/06/16 06:56:19;;;;;;;3.55;2.67;;;;;;;20.78;77.70;96627.22;10364563;28;20313;-50
2022/06/16 07:01:20;;;;;;;4.80;3.00;;;;;;;21.12;74.47;96598.31;10369309;28;20217;-54
2022/06/16 07:06:20;;;;;;;4.10;2.95;;;;;;;20.83;74.61;96613.25;10368724;28;20786;-50
2022/06/16 07:11:21;;;;;;;4.13;2.38;;;;;;;20.94;72.31;96574.38;10368688;28;20712;-52
2022/06/16 07:16:22;;;;;;;8.65;3.22;;;;;;;21.27;69.25;96538.44;10369136;28;20185;-53
2022/06/16 07:21:23;;;;;;;9.77;2.55;;;;;;;21.51;69.27;96558.00;10350265;28;20213;-56
2022/06/16 07:26:24;;;;;;;5.43;2.45;;;;;;;21.94;62.37;96457.34;10350573;28;20227;-52
2022/06/16 07:31:24;;;;;;;3.75;2.40;;;;;;;21.51;64.22;96500.16;10367092;28;20599;-51
2022/06/16 07:36:25;;;;;;;8.50;2.70;;;;;;;22.86;58.66;96415.56;10367651;28;20188;-51
2022/06/16 07:41:31;;;;;;;4.65;2.42;;;;;;;23.67;57.61;96424.00;10367713;28;20237;-51
2022/06/16 07:46:32;;;;;;;5.63;2.38;;;;;;;24.47;53.28;96355.88;10367161;28;20209;-51
2022/06/16 07:51:32;;;;;;;4.15;2.53;;;;;;;25.30;51.69;96365.38;10379109;28;20216;-55
2022/06/16 07:56:32;;;;;;;4.97;2.05;;;;;;;25.89;52.14;96391.16;10406473;28;20188;-55
2022/06/16 08:01:33;;;;;;;5.80;2.17;;;;;;;26.77;48.49;96333.09;10368494;28;20209;-53
2022/06/16 08:06:35;;;;;;;4.50;2.80;;;;;;;27.49;45.98;96304.19;10373577;28;20308;-53
2022/06/16 08:16:55;;;;;;;3.70;2.28;;;;;;;29.49;42.04;96295.69;10374295;28;20189;-57
2022/06/16 08:21:56;;;;;;;5.72;2.40;;;;;;;28.74;42.64;96295.09;10374492;28;20205;-54
2022/06/16 08:26:57;;;;;;;5.27;2.43;;;;;;;29.31;41.80;96286.44;10374078;28;20311;-54
2022/06/16 08:31:57;;;;;;;4.30;2.17;;;;;;;28.16;43.52;96300.38;10353338;28;20514;-57
2022/06/16 08:36:57;;;;;;;5.43;2.28;;;;;;;27.43;43.99;96299.91;10370199;28;20217;-55
2022/06/16 08:42:08;;;;;;;6.53;1.83;;;;;;;26.74;42.68;96253.00;10371177;28;20287;-55
2022/06/16 08:47:17;;;;;;;5.72;1.88;;;;;;;26.42;41.97;96229.94;10373986;28;20233;-57
2022/06/16 08:52:29;;;;;;;4.72;1.73;;;;;;;27.46;40.41;96233.97;10372886;28;20217;-58
2022/06/16 08:57:42;;;;;;;4.13;2.00;;;;;;;27.24;42.16;96280.84;10354509;28;20185;-59
2022/06/16 09:02:53;;;;;;;2.78;1.83;;;;;;;26.71;44.23;96343.06;10371877;28;20608;-59
2022/06/16 09:08:18;;;;;;;5.38;2.15;;;;;;;27.05;43.41;96337.09;10354026;28;20224;-57
2022/06/16 09:13:27;;;;;;;3.00;1.80;;;;;;;27.28;43.16;96333.00;10371194;28;20201;-59
2022/06/16 09:18:38;;;;;;;5.07;2.08;;;;;;;27.21;43.61;96346.75;10372387;28;20225;-58
2022/06/16 09:24:01;;;;;;;5.32;2.22;;;;;;;27.46;45.53;96425.81;10372364;28;20266;-57
2022/06/16 09:29:05;;;;;;;4.35;2.05;;;;;;;28.32;43.45;96401.56;10371179;28;20209;-56
2022/06/16 09:34:18;;;;;;;5.55;2.10;;;;;;;28.51;42.01;96368.56;10371730;28;20208;-54
2022/06/16 09:39:22;;;;;;;6.20;2.80;;;;;;;27.11;45.61;96411.31;10352661;28;20240;-52
2022/06/16 09:44:30;;;;;;;4.03;2.60;;;;;;;25.75;48.06;96455.25;10353739;28;20596;-58
2022/06/16 09:49:37;;;;;;;8.32;2.88;;;;;;;25.52;46.76;96425.06;10353804;28;20213;-53
2022/06/16 09:54:43;;;;;;;6.15;2.42;;;;;;;24.83;48.36;96461.50;10352220;28;20204;-58
2022/06/16 09:59:57;;;;;;;3.05;2.13;;;;;;;24.78;48.74;96474.03;10367980;28;20258;-57
2022/06/16 10:04:57;;;;;;;3.40;2.50;;;;;;;24.47;50.53;96519.22;10350133;28;20233;-52
2022/06/16 10:10:18;;;;;;;8.50;2.90;;;;;;;24.42;50.11;96511.94;10368346;28;20233;-53
2022/06/16 10:15:43;;;;;;;7.15;3.13;;;;;;;24.38;51.70;96545.66;10368576;28;20201;-56
2022/06/16 10:20:44;;;;;;;7.63;2.88;;;;;;;25.83;48.38;96516.47;10352080;28;20217;-54
2022/06/16 10:25:54;;;;;;;8.70;2.97;;;;;;;27.14;47.82;96544.44;10369565;28;20217;-57
2022/06/16 10:30:56;;;;;;;3.85;3.00;;;;;;;27.32;47.41;96517.03;10369519;28;20276;-58
2022/06/16 10:36:12;;;;;;;7.32;3.70;;;;;;;26.70;49.06;96548.34;10369135;28;20181;-59
2022/06/16 10:41:36;;;;;;;7.43;3.08;;;;;;;26.64;49.37;96547.50;10368814;28;20263;-58
2022/06/16 10:46:52;;;;;;;4.43;3.05;;;;;;;27.49;46.16;96489.03;10367870;28;20237;-56
2022/06/16 10:51:57;;;;;;;6.57;2.72;;;;;;;27.36;47.35;96525.38;10368480;28;20262;-59
2022/06/16 10:57:26;;;;;;;6.20;3.17;;;;;;;27.40;46.89;96521.06;10349322;28;20177;-58
2022/06/16 11:02:30;;;;;;;5.78;3.50;;;;;;;27.18;47.12;96492.53;10364107;28;20319;-59
2022/06/16 11:07:43;;;;;;;6.60;3.35;;;;;;;27.70;46.84;96522.94;10367668;28;20235;-58
2022/06/16 11:12:47;;;;;;;9.50;3.40;;;;;;;26.96;48.14;96516.97;10367245;28;20193;-57
2022/06/16 11:17:50;;;;;;;8.13;3.10;;;;;;;25.65;50.66;96541.81;10349905;28;20186;-59
2022/06/16 11:22:51;;;;;;;10.07;3.38;;;;;;;26.85;49.45;96553.78;10350607;28;20211;-58
2022/06/16 11:27:58;;;;;;;7.72;2.95;;;;;;;27.50;47.22;96498.72;10368920;28;20587;-59
2022/06/16 11:32:59;;;;;;;5.32;2.92;;;;;;;28.88;43.46;96445.44;10366018;28;20189;-57
2022/06/16 11:38:08;;;;;;;3.50;2.08;;;;;;;29.34;41.23;96383.84;10368984;28;20633;-59
2022/06/16 11:43:28;;;;;;;4.40;2.28;;;;;;;31.28;39.09;96403.09;10312114;28;20233;-60
2022/06/16 11:48:42;;;;;;;4.50;2.45;;;;;;;31.51;36.86;96354.50;10334653;28;20209;-58
2022/06/16 11:53:59;;;;;;;3.72;2.33;;;;;;;29.57;38.35;96316.63;10324633;28;20190;-60
2022/06/16 11:59:27;;;;;;;8.93;2.80;;;;;;;30.01;39.87;96395.78;10333423;28;20344;-57
2022/06/16 12:04:45;;;;;;;9.02;2.65;;;;;;;28.41;43.01;96421.44;10334943;28;20236;-55
2022/06/16 12:10:17;;;;;;;4.95;2.45;;;;;;;27.00;45.10;96464.28;10316709;28;20292;-56
2022/06/16 12:15:48;;;;;;;6.50;2.63;;;;;;;25.66;47.83;96499.72;10316754;28;20241;-57
2022/06/16 12:21:24;;;;;;;7.35;2.80;;;;;;;26.23;46.41;96490.13;10315680;28;20839;-56
2022/06/16 12:26:31;;;;;;;3.90;2.85;;;;;;;27.33;45.45;96510.56;10307777;28;20223;-57
2022/06/16 12:32:11;;;;;;;6.90;2.70;;;;;;;28.23;43.84;96506.38;10292558;28;20218;-57
2022/06/16 12:37:16;;;;;;;5.43;2.88;;;;;;;29.14;40.76;96438.75;10293466;28;20227;-56
2022/06/16 12:42:20;;;;;;;8.98;2.67;;;;;;;28.33;42.94;96470.53;10366264;28;20232;-57
2022/06/16 12:47:38;;;;;;;5.43;2.30;;;;;;;29.20;41.30;96454.91;10356117;28;20225;-61
2022/06/16 12:52:42;;;;;;;10.68;3.00;;;;;;;28.66;42.40;96481.69;10371516;28;20199;-60
2022/06/16 12:57:47;;;;;;;5.70;2.95;;;;;;;29.61;40.44;96455.34;10396614;28;20247;-61
2022/06/16 13:02:59;;;;;;;10.13;2.95;;;;;;;29.37;40.43;96435.63;10396318;28;20193;-60
2022/06/16 13:08:02;;;;;;;8.65;2.45;;;;;;;30.66;38.29;96435.75;10412932;28;20229;-61
2022/06/16 13:13:02;;;;;;;6.25;2.42;;;;;;;31.67;36.20;96411.13;10394656;28;20225;-61
2022/06/16 13:18:13;;;;;;;4.95;2.35;;;;;;;30.09;39.28;96437.56;10412501;28;20242;-61
2022/06/16 13:23:19;;;;;;;5.97;2.65;;;;;;;32.20;36.13;96435.00;10410030;28;20615;-62
2022/06/16 13:28:30;;;;;;;5.53;2.45;;;;;;;32.29;36.57;96457.59;10394916;28;20247;-61
2022/06/16 13:33:45;;;;;;;5.25;2.25;;;;;;;34.43;32.34;96378.31;10394682;28;20686;-59
2022/06/16 13:38:47;;;;;;;6.35;2.58;;;;;;;33.91;32.75;96361.94;10412374;28;20236;-60
2022/06/16 13:44:07;;;;;;;6.38;2.33;;;;;;;32.14;34.46;96346.78;10394652;28;20212;-61
2022/06/16 13:49:07;;;;;;;8.65;2.50;;;;;;;32.48;34.11;96359.84;10412443;28;20216;-61
2022/06/16 13:54:10;;;;;;;5.57;2.20;;;;;;;34.11;33.02;96393.94;10411941;28;20184;-60
2022/06/16 13:59:22;;;;;;;4.35;1.95;;;;;;;33.30;32.76;96342.69;10409934;28;20497;-59
2022/06/16 14:04:22;;;;;;;12.10;1.90;;;;;;;33.26;31.65;96274.59;10411752;28;20216;-61
2022/06/16 14:09:27;;;;;;;6.75;2.13;;;;;;;33.69;31.92;96319.31;10411375;28;20282;-62
2022/06/16 14:14:47;;;;;;;5.57;2.20;;;;;;;34.32;29.72;96276.44;10410323;28;20522;-60
2022/06/16 14:19:49;;;;;;;3.92;1.63;;;;;;;34.55;28.47;96235.41;10409129;28;20701;-58
2022/06/16 14:25:00;;;;;;;3.60;1.83;;;;;;;33.69;29.58;96244.06;10408097;28;20315;-61
2022/06/16 14:30:01;;;;;;;2.72;1.60;;;;;;;31.69;31.69;96203.88;10410578;28;20207;-61
2022/06/16 14:35:09;;;;;;;3.67;1.65;;;;;;;33.27;30.87;96275.44;10391933;28;20238;-61
2022/06/16 14:40:15;;;;;;;17.48;4.45;;;;;;;32.71;31.08;96259.50;10425561;28;20278;-57
2022/06/16 14:45:36;;;;;;;6.65;2.03;;;;;;;33.22;30.70;96277.16;10425437;28;20590;-61
2022/06/16 14:50:57;;;;;;;4.72;1.63;;;;;;;34.07;29.37;96281.50;10392252;28;20805;-61
2022/06/16 14:56:10;;;;;;;3.63;2.10;;;;;;;33.35;30.12;96258.34;10391126;28;20190;-59
2022/06/16 15:01:11;;;;;;;5.00;1.80;;;;;;;34.38;29.98;96323.28;10407314;28;20275;-59
2022/06/16 15:06:12;;;;;;;5.18;1.85;;;;;;;32.42;31.90;96295.16;10389079;28;20216;-59
2022/06/16 15:11:22;;;;;;;6.15;1.85;;;;;;;32.30;31.35;96244.25;10407411;28;20285;-60
2022/06/16 15:21:44;;;;;;;9.00;2.10;;;;;;;30.58;33.88;96268.75;10408859;28;20583;-57
2022/06/16 15:26:56;;;;;;;6.22;2.50;;;;;;;31.32;34.94;96356.50;10409228;28;20228;-60
2022/06/16 15:31:57;;;;;;;5.13;2.17;;;;;;;32.11;34.01;96358.22;10408083;28;20350;-57
2022/06/16 15:37:00;;;;;;;6.35;2.92;;;;;;;32.95;32.14;96362.25;10408625;28;20533;-60
2022/06/16 15:42:05;;;;;;;6.90;2.65;;;;;;;30.95;35.97;96392.28;10355911;28;20707;-60
2022/06/16 15:47:08;;;;;;;9.02;2.67;;;;;;;31.52;35.17;96404.03;10367417;28;20225;-60
2022/06/16 15:52:16;;;;;;;8.02;2.70;;;;;;;31.24;34.85;96374.22;10349973;28;20209;-59
2022/06/16 15:57:17;;;;;;;5.45;2.50;;;;;;;29.78;35.97;96359.59;10367988;28;20244;-57
2022/06/16 16:02:18;;;;;;;7.20;2.88;;;;;;;27.59;40.98;96432.50;10367366;28;20795;-59
2022/06/16 16:07:19;;;;;;;5.35;2.88;;;;;;;26.40;42.20;96455.00;10366384;28;20307;-58
2022/06/16 16:12:23;;;;;;;12.70;3.60;;;;;;;26.59;41.89;96463.38;10367519;28;20279;-58
2022/06/16 16:17:45;;;;;;;5.97;2.95;;;;;;;25.87;43.26;96501.47;10367265;28;20695;-57
2022/06/16 16:23:13;;;;;;;4.63;2.58;;;;;;;24.97;45.14;96512.81;10369034;28;20309;-53
2022/06/16 16:28:18;;;;;;;13.20;3.35;;;;;;;24.39;45.69;96520.47;10333746;28;20295;-56
2022/06/16 16:33:30;;;;;;;6.70;2.72;;;;;;;24.86;43.74;96482.44;10374167;28;20543;-52
2022/06/16 16:38:42;;;;;;;7.22;2.92;;;;;;;25.05;42.61;96464.13;10366927;28;20232;-55
2022/06/16 16:43:50;;;;;;;4.20;2.50;;;;;;;25.26;42.86;96481.16;10375036;28;20217;-59
2022/06/16 16:48:51;;;;;;;6.60;2.65;;;;;;;25.61;42.49;96479.84;10374162;28;20627;-59
2022/06/16 16:53:57;;;;;;;3.97;2.30;;;;;;;25.03;43.18;96485.00;10372749;28;20232;-58
2022/06/16 16:58:59;;;;;;;4.65;2.42;;;;;;;24.64;44.41;96497.75;10374492;28;20217;-59
2022/06/16 17:04:08;;;;;;;7.50;2.42;;;;;;;24.70;44.03;96494.88;10374048;28;20214;-55
2022/06/16 17:09:09;;;;;;;3.47;2.17;;;;;;;24.32;43.91;96472.47;10374306;28;20206;-56
2022/06/16 17:14:10;;;;;;;4.60;2.40;;;;;;;24.07;44.17;96477.53;10374054;28;20203;-55
2022/06/16 17:19:10;;;;;;;2.90;2.25;;;;;;;24.24;44.02;96485.50;10373361;28;20223;-57
2022/06/16 17:24:17;;;;;;;4.43;2.08;;;;;;;23.86;43.71;96459.34;10373687;28;20328;-59
2022/06/16 17:29:17;;;;;;;3.63;2.40;;;;;;;23.33;44.13;96477.53;10373483;28;20205;-54
2022/06/16 17:34:23;;;;;;;7.63;2.70;;;;;;;23.68;43.60;96483.69;10372310;28;20181;-57
2022/06/16 17:39:30;;;;;;;4.63;2.10;;;;;;;23.39;44.03;96474.97;10372913;28;20299;-56
2022/06/16 17:44:30;;;;;;;4.60;2.60;;;;;;;23.22;44.20;96478.44;10364718;28;20260;-52
2022/06/16 17:49:31;;;;;;;5.63;1.98;;;;;;;22.98;45.66;96523.16;10372574;28;20552;-54
2022/06/16 17:59:55;;;;;;;3.50;2.35;;;;;;;22.70;46.04;96535.47;10371903;28;20735;-55
2022/06/16 18:04:56;;;;;;;5.97;2.10;;;;;;;22.47;47.02;96576.41;10371676;28;20310;-57
2022/06/16 18:09:58;;;;;;;5.15;1.92;;;;;;;22.17;47.95;96595.22;10372035;28;20220;-55
2022/06/16 18:15:05;;;;;;;7.03;1.98;;;;;;;22.03;48.38;96606.13;10353542;28;20632;-53
2022/06/16 18:20:06;;;;;;;3.17;2.00;;;;;;;21.96;48.97;96628.63;10353193;28;20213;-57
2022/06/16 18:25:07;;;;;;;3.42;1.85;;;;;;;21.76;49.46;96653.78;10370780;28;20221;-56
2022/06/16 18:30:11;;;;;;;3.58;2.13;;;;;;;21.47;50.31;96666.91;10370402;28;20694;-53
2022/06/16 18:35:22;;;;;;;4.55;2.00;;;;;;;21.02;51.07;96683.25;10370357;28;20177;-57
2022/06/16 18:40:24;;;;;;;6.13;2.40;;;;;;;20.76;51.84;96719.00;10370281;28;20299;-55
2022/06/16 18:45:25;;;;;;;4.50;2.60;;;;;;;20.66;52.31;96717.66;10369969;28;20280;-52
2022/06/16 18:50:25;;;;;;;4.55;2.42;;;;;;;20.42;52.76;96729.13;10369867;28;20220;-53
2022/06/16 18:55:26;;;;;;;3.53;1.92;;;;;;;20.16;53.95;96760.25;10392926;23;20196;-63
2022/06/16 19:00:26;;;;;;;5.43;2.10;;;;;;;19.99;54.41;96767.13;10366305;28;20217;-61
2022/06/16 19:05:27;;;;;;;4.57;2.20;;;;;;;19.69;54.61;96775.66;10351255;28;20225;-60
2022/06/16 19:10:29;;;;;;;5.25;2.13;;;;;;;19.59;54.56;96786.75;10369491;28;20869;-61
2022/06/16 19:15:33;;;;;;;4.93;2.15;;;;;;;19.38;54.75;96793.97;10369681;28;20212;-61
2022/06/16 19:20:37;;;;;;;4.68;2.05;;;;;;;19.26;55.43;96814.25;10384746;28;20925;-58
2022/06/16 19:25:39;;;;;;;5.18;2.00;;;;;;;19.06;56.16;96839.00;10384255;28;20216;-58
2022/06/16 19:30:41;;;;;;;3.97;2.45;;;;;;;18.84;56.68;96856.19;10384635;28;20197;-59
2022/06/16 19:35:43;;;;;;;4.13;2.15;;;;;;;18.61;57.62;96885.78;10368558;28;20599;-59
2022/06/16 19:40:43;;;;;;;4.05;2.10;;;;;;;18.40;58.07;96900.84;10351695;28;20225;-59
2022/06/16 19:51:12;;;;;;;3.47;2.05;;;;;;;17.79;60.80;96958.16;10369509;28;20193;-58
2022/06/16 19:56:12;;;;;;;8.85;2.35;;;;;;;17.52;62.12;96985.47;10351343;28;20233;-60
2022/06/16 20:01:13;;;;;;;2.92;2.00;;;;;;;17.43;61.89;96982.97;10375978;28;20292;-61
2022/06/16 20:06:14;;;;;;;3.63;2.33;;;;;;;17.15;62.67;97001.53;10376860;28;20641;-60
2022/06/16 20:11:14;;;;;;;5.18;2.13;;;;;;;16.92;62.77;96991.97;10376211;28;20279;-60
2022/06/16 20:16:14;;;;;;;6.95;2.10;;;;;;;16.67;63.63;97003.88;10376560;28;20209;-60
2022/06/16 20:21:20;;;;;;;4.32;2.10;;;;;;;16.42;64.30;97012.16;10376317;28;20232;-60
2022/06/16 20:26:21;;;;;;;4.53;2.35;;;;;;;16.23;66.11;97038.19;10358526;28;20311;-57
2022/06/16 20:31:23;;;;;;;4.07;1.95;;;;;;;16.08;66.27;97039.19;10376121;28;20196;-59
2022/06/16 20:36:25;;;;;;;2.95;1.85;;;;;;;15.94;66.29;97033.75;10375309;28;20205;-59
2022/06/16 20:46:45;;;;;;;3.38;2.20;;;;;;;15.78;68.64;97074.34;10359604;28;20221;-59
2022/06/16 20:51:45;;;;;;;6.25;2.60;;;;;;;15.37;70.62;97090.53;10358331;28;20186;-59
2022/06/16 20:56:46;;;;;;;2.95;2.67;;;;;;;14.91;73.32;97101.88;10333815;28;20218;-60
2022/06/16 21:02:02;;;;;;;5.03;3.08;;;;;;;14.58;75.14;97107.31;10358841;28;20186;-58
2022/06/16 21:07:03;;;;;;;6.07;2.45;;;;;;;14.48;76.02;97100.63;10372971;28;20217;-60
2022/06/16 21:12:19;;;;;;;5.07;2.50;;;;;;;14.31;76.06;97092.78;10373055;28;20243;-60
2022/06/16 21:17:23;;;;;;;2.90;2.60;;;;;;;14.21;77.65;97114.06;10373923;28;20209;-59
2022/06/16 21:22:27;;;;;;;4.25;2.47;;;;;;;13.75;80.16;97134.88;10356325;28;20243;-60
2022/06/16 21:27:28;;;;;;;4.32;2.55;;;;;;;13.42;83.17;97142.78;10356276;28;20263;-59
2022/06/16 21:32:29;;;;;;;5.57;3.22;;;;;;;13.27;84.88;97153.09;10373361;28;20186;-57
2022/06/16 21:37:32;;;;;;;8.35;2.90;;;;;;;13.16;86.56;97163.94;10373490;28;20213;-56
2022/06/16 21:42:32;;;;;;;3.10;2.38;;;;;;;13.28;87.22;97151.31;10373071;28;20575;-57
2022/06/16 21:47:40;;;;;;;9.70;3.65;;;;;;;13.28;86.76;97161.84;10372639;28;20231;-57
2022/06/16 21:52:40;;;;;;;6.07;3.10;;;;;;;13.16;88.64;97158.69;10355440;28;20718;-57
2022/06/16 21:57:40;;;;;;;6.53;3.47;;;;;;;12.93;90.20;97164.53;10387331;28;20237;-59
2022/06/16 22:02:41;;;;;;;7.30;3.30;;;;;;;12.82;91.12;97159.59;10372142;28;20197;-58
2022/06/16 22:07:42;;;;;;;4.55;2.90;;;;;;;13.00;91.30;97167.34;10371695;28;20275;-59
2022/06/16 22:12:43;;;;;;;4.38;2.60;;;;;;;12.81;91.40;97161.38;10372262;28;20289;-59
2022/06/16 22:17:46;;;;;;;7.90;3.45;;;;;;;12.35;95.44;97168.75;10371996;28;20209;-55
2022/06/16 22:22:47;;;;;;;6.00;3.05;;;;;;;12.49;97.64;97170.78;10371300;28;20193;-57
2022/06/16 22:27:56;;;;;;;6.00;3.15;;;;;;;12.59;96.36;97175.09;10371713;28;20306;-60
2022/06/16 22:32:56;;;;;;;7.78;3.45;;;;;;;12.57;96.27;97188.41;10371474;28;20197;-55
2022/06/16 22:37:58;;;;;;;7.78;3.25;;;;;;;12.58;96.33;97202.38;10371199;28;20703;-57
2022/06/16 22:43:02;;;;;;;5.88;3.20;;;;;;;12.45;97.83;97214.13;10371130;28;20659;-56
2022/06/16 22:48:04;;;;;;;10.57;3.60;;;;;;;12.44;98.50;97228.22;10371020;28;20225;-57
2022/06/16 22:53:05;;;;;;;4.90;3.28;;;;;;;12.40;98.90;97228.69;10353122;28;20190;-60
2022/06/16 22:58:06;;;;;;;5.80;3.55;;;;;;;12.34;99.74;97221.44;10370571;28;20271;-58
2022/06/16 23:03:10;;;;;;;9.25;3.65;;;;;;;12.23;100.00;97223.34;10370256;28;20300;-59
2022/06/16 23:08:18;;;;;;;7.53;3.65;;;;;;;12.28;100.00;97220.25;10351917;28;20284;-59
2022/06/16 23:13:18;;;;;;;6.53;3.58;;;;;;;12.26;100.00;97222.22;10353161;28;20679;-57
2022/06/16 23:18:21;;;;;;;5.45;3.15;;;;;;;11.93;100.00;97229.88;10370035;28;20209;-59
2022/06/16 23:23:23;;;;;;;3.53;3.22;;;;;;;11.82;100.00;97243.19;10370284;28;20185;-56
2022/06/16 23:28:24;;;;;;;3.85;3.45;;;;;;;11.90;100.00;97238.84;10370163;28;20253;-59
2022/06/16 23:33:30;;;;;;;5.22;3.40;;;;;;;11.86;100.00;97231.41;10372883;28;20212;-57
2022/06/16 23:38:34;;;;;;;4.82;3.30;;;;;;;11.89;100.00;97234.56;10361063;28;20213;-56
2022/06/16 23:43:35;;;;;;;7.50;3.50;;;;;;;11.88;100.00;97256.56;10360521;28;20211;-58
2022/06/16 23:48:36;;;;;;;6.70;3.80;;;;;;;11.86;100.00;97241.91;10377678;28;20291;-58
2022/06/16 23:53:36;;;;;;;10.60;4.00;;;;;;;11.78;100.00;97232.19;10377755;28;20200;-58
2022/06/16 23:58:37;;;;;;;5.18;4.20;;;;;;;11.84;100.00;97223.69;10359168;28;20239;-57
